createdAt,value
2023-01-18T00:00:28.437Z,6.25
2023-01-18T00:04:29.981Z,8.05
2023-01-18T00:08:33.505Z,6.18
2023-01-18T00:12:35.010Z,7.45
2023-01-18T00:16:36.569Z,7.68
2023-01-18T00:20:38.148Z,7.93
2023-01-18T00:24:39.552Z,9.20
2023-01-18T00:28:41.493Z,8.80
2023-01-18T00:32:46.052Z,7.25
2023-01-18T00:36:48.925Z,7.65
2023-01-18T00:40:50.630Z,6.70
2023-01-18T00:44:52.092Z,7.47
2023-01-18T00:48:54.729Z,7.53
2023-01-18T00:52:58.577Z,8.55
2023-01-18T00:57:00.393Z,6.85
2023-01-18T01:01:01.884Z,7.95
2023-01-18T01:05:22.442Z,8.05
2023-01-18T01:09:26.816Z,7.15
2023-01-18T01:13:46.716Z,8.57
2023-01-18T01:18:06.536Z,7.60
2023-01-18T01:22:26.795Z,8.75
2023-01-18T01:30:29.679Z,8.15
2023-01-18T01:34:31.830Z,8.35
2023-01-18T01:38:33.791Z,7.18
2023-01-18T01:42:35.262Z,7.68
2023-01-18T01:46:39.595Z,7.95
2023-01-18T01:50:41.778Z,8.43
2023-01-18T01:55:11.873Z,7.25
2023-01-18T01:59:15.613Z,8.25
2023-01-18T02:03:20.836Z,8.65
2023-01-18T02:07:23.654Z,9.10
2023-01-18T02:11:25.150Z,8.82
2023-01-18T02:15:43.232Z,8.85
2023-01-18T02:19:56.819Z,8.88
2023-01-18T02:24:31.806Z,7.95
2023-01-18T02:28:36.516Z,8.77
2023-01-18T02:32:53.562Z,8.23
2023-01-18T02:37:02.000Z,7.50
2023-01-18T02:41:49.087Z,7.57
2023-01-18T02:46:08.985Z,7.72
2023-01-18T02:50:10.957Z,8.05
2023-01-18T02:54:13.235Z,7.30
2023-01-18T02:58:26.167Z,7.78
2023-01-18T03:02:28.398Z,6.93
2023-01-18T03:06:30.494Z,7.38
2023-01-18T03:10:38.090Z,6.15
2023-01-18T03:15:05.314Z,6.72
2023-01-18T03:19:35.937Z,7.18
2023-01-18T03:23:42.462Z,6.20
2023-01-18T03:28:06.623Z,6.60
2023-01-18T03:32:31.109Z,7.93
2023-01-18T03:36:38.999Z,8.05
2023-01-18T03:40:40.741Z,8.32
2023-01-18T03:44:55.090Z,7.45
2023-01-18T03:48:57.101Z,7.55
2023-01-18T03:53:03.428Z,7.45
2023-01-18T03:57:15.147Z,7.75
2023-01-18T04:01:17.021Z,7.38
2023-01-18T04:05:18.573Z,7.53
2023-01-18T04:09:20.013Z,7.97
2023-01-18T04:13:21.509Z,6.55
2023-01-18T04:17:23.009Z,7.03
2023-01-18T04:21:24.433Z,8.40
2023-01-18T04:25:26.839Z,7.03
2023-01-18T04:29:28.773Z,5.95
2023-01-18T04:33:30.242Z,7.18
2023-01-18T04:37:34.570Z,7.05
2023-01-18T04:41:36.022Z,6.25
2023-01-18T04:45:37.731Z,6.82
2023-01-18T04:49:39.181Z,6.75
2023-01-18T04:53:42.425Z,6.05
2023-01-18T04:57:44.938Z,6.47
2023-01-18T05:01:46.469Z,5.85
2023-01-18T05:05:48.029Z,6.28
2023-01-18T05:09:49.543Z,7.95
2023-01-18T05:13:51.049Z,6.70
2023-01-18T05:17:52.558Z,6.95
2023-01-18T05:21:54.011Z,6.47
2023-01-18T05:25:57.424Z,6.82
2023-01-18T05:29:59.506Z,6.63
2023-01-18T05:34:01.089Z,6.40
2023-01-18T05:38:02.659Z,6.13
2023-01-18T05:42:05.526Z,5.57
2023-01-18T05:46:07.194Z,5.15
2023-01-18T05:50:10.025Z,5.85
2023-01-18T05:54:11.970Z,6.07
2023-01-18T05:58:13.430Z,6.18
2023-01-18T06:02:14.933Z,5.78
2023-01-18T06:06:16.537Z,5.13
2023-01-18T06:10:18.225Z,5.45
2023-01-18T06:14:19.686Z,5.43
2023-01-18T06:18:21.862Z,4.65
2023-01-18T06:22:23.912Z,5.00
2023-01-18T06:26:25.456Z,4.97
2023-01-18T06:30:26.907Z,4.63
2023-01-18T06:34:30.269Z,4.72
2023-01-18T06:38:32.009Z,5.05
2023-01-18T06:42:33.448Z,5.10
2023-01-18T06:46:34.961Z,5.63
2023-01-18T06:50:36.524Z,5.40
2023-01-18T06:54:38.540Z,5.15
2023-01-18T06:58:40.566Z,6.60
2023-01-18T07:02:42.077Z,7.20
2023-01-18T07:06:43.578Z,5.10
2023-01-18T07:10:45.039Z,5.55
2023-01-18T07:14:46.978Z,3.78
2023-01-18T07:18:49.430Z,3.97
2023-01-18T07:22:52.599Z,4.05
2023-01-18T07:26:54.903Z,4.20
2023-01-18T07:30:56.442Z,3.85
2023-01-18T07:34:59.489Z,4.63
2023-01-18T07:39:05.075Z,4.03
2023-01-18T07:43:06.601Z,4.22
2023-01-18T07:47:08.070Z,3.83
2023-01-18T07:51:10.369Z,3.85
2023-01-18T07:55:11.828Z,3.42
2023-01-18T07:59:13.291Z,4.03
2023-01-18T08:03:18.107Z,4.20
2023-01-18T08:07:19.917Z,4.05
2023-01-18T08:11:21.387Z,3.42
2023-01-18T08:15:22.938Z,4.13
2023-01-18T08:19:25.096Z,3.90
2023-01-18T08:23:26.615Z,3.53
2023-01-18T08:27:28.160Z,3.88
2023-01-18T08:31:29.796Z,3.45
2023-01-18T08:35:34.771Z,3.80
2023-01-18T08:39:36.224Z,3.30
2023-01-18T08:43:37.754Z,3.38
2023-01-18T08:47:40.554Z,3.92
2023-01-18T08:51:42.565Z,3.60
2023-01-18T08:55:43.992Z,3.70
2023-01-18T08:59:45.440Z,5.43
2023-01-18T09:03:48.725Z,7.38
2023-01-18T09:07:52.013Z,3.92
2023-01-18T09:11:53.622Z,3.65
2023-01-18T09:16:00.368Z,3.80
2023-01-18T09:20:01.888Z,3.80
2023-01-18T09:24:03.464Z,3.47
2023-01-18T09:28:05.322Z,4.18
2023-01-18T09:32:08.269Z,4.32
2023-01-18T09:36:12.515Z,3.60
2023-01-18T09:40:23.216Z,4.15
2023-01-18T09:44:24.653Z,4.07
2023-01-18T09:48:32.482Z,5.20
2023-01-18T09:53:06.493Z,4.60
2023-01-18T09:57:14.060Z,4.85
2023-01-18T10:01:22.297Z,3.75
2023-01-18T10:05:29.428Z,3.65
2023-01-18T10:09:42.352Z,4.57
2023-01-18T10:13:57.641Z,3.63
2023-01-18T10:18:00.917Z,3.95
2023-01-18T10:22:50.877Z,3.22
2023-01-18T10:26:58.491Z,4.07
2023-01-18T10:31:36.949Z,3.72
2023-01-18T10:35:43.255Z,4.00
2023-01-18T10:39:52.752Z,3.67
2023-01-18T10:43:55.031Z,3.25
2023-01-18T10:47:59.440Z,3.30
2023-01-18T10:52:31.399Z,3.28
2023-01-18T10:56:33.467Z,4.07
2023-01-18T11:00:35.800Z,3.15
2023-01-18T11:04:37.748Z,3.38
2023-01-18T11:08:39.212Z,4.05
2023-01-18T11:12:43.473Z,3.60
2023-01-18T11:17:02.436Z,4.13
2023-01-18T11:21:10.779Z,3.60
2023-01-18T11:25:17.267Z,4.10
2023-01-18T11:29:21.997Z,4.03
2023-01-18T11:33:25.952Z,5.20
2023-01-18T11:37:38.106Z,4.45
2023-01-18T11:41:39.532Z,3.75
2023-01-18T11:45:49.312Z,4.40
2023-01-18T11:49:53.818Z,4.25
2023-01-18T11:54:14.065Z,3.78
2023-01-18T11:58:28.326Z,4.93
2023-01-18T12:03:04.835Z,5.15
2023-01-18T12:07:08.943Z,4.60
2023-01-18T12:12:06.486Z,4.65
2023-01-18T12:16:26.484Z,3.88
2023-01-18T12:20:49.599Z,3.90
2023-01-18T12:25:28.322Z,3.65
2023-01-18T12:29:42.424Z,4.38
2023-01-18T12:34:07.043Z,4.53
2023-01-18T12:38:22.992Z,4.00
2023-01-18T12:42:56.007Z,4.10
2023-01-18T12:47:15.867Z,4.03
2023-01-18T12:51:24.611Z,3.53
2023-01-18T12:55:29.441Z,3.78
2023-01-18T12:59:46.899Z,3.20
2023-01-18T13:03:51.570Z,3.10
2023-01-18T13:08:06.482Z,3.95
2023-01-18T13:12:08.262Z,5.35
2023-01-18T13:16:31.743Z,4.65
2023-01-18T13:21:16.733Z,4.03
2023-01-18T13:25:40.360Z,3.70
2023-01-18T13:29:43.754Z,4.55
2023-01-18T13:33:45.933Z,4.85
2023-01-18T13:37:49.802Z,4.50
2023-01-18T13:42:08.029Z,4.82
2023-01-18T13:46:09.879Z,4.80
2023-01-18T13:50:34.452Z,5.63
2023-01-18T13:54:57.795Z,4.65
2023-01-18T13:59:16.226Z,4.60
2023-01-18T14:03:43.566Z,5.60
2023-01-18T14:07:48.655Z,4.80
2023-01-18T14:11:53.921Z,5.05
2023-01-18T14:15:56.030Z,4.82
2023-01-18T14:20:02.625Z,4.53
2023-01-18T14:24:14.462Z,3.28
2023-01-18T14:28:34.256Z,3.65
2023-01-18T14:32:56.379Z,3.83
2023-01-18T14:36:57.933Z,3.55
2023-01-18T14:41:05.070Z,8.55
2023-01-18T14:45:07.381Z,3.60
2023-01-18T14:49:15.552Z,3.72
2023-01-18T14:53:22.597Z,3.80
2023-01-18T14:57:24.561Z,3.60
2023-01-18T15:01:33.344Z,4.00
2023-01-18T15:05:35.634Z,5.30
2023-01-18T15:09:39.489Z,4.88
2023-01-18T15:13:55.614Z,4.00
2023-01-18T15:18:10.367Z,4.10
2023-01-18T15:22:15.279Z,4.72
2023-01-18T15:26:16.853Z,3.60
2023-01-18T15:30:23.648Z,3.63
2023-01-18T15:34:29.833Z,4.50
2023-01-18T15:38:32.213Z,5.05
2023-01-18T15:42:43.960Z,5.38
2023-01-18T15:46:45.480Z,5.32
2023-01-18T15:50:50.067Z,5.07
2023-01-18T15:54:51.706Z,4.22
2023-01-18T15:58:55.945Z,4.90
2023-01-18T16:02:58.166Z,5.88
2023-01-18T16:07:25.744Z,5.38
2023-01-18T16:11:32.573Z,5.25
2023-01-18T16:15:34.167Z,5.43
2023-01-18T16:19:48.920Z,5.38
2023-01-18T16:23:52.451Z,5.30
2023-01-18T16:27:57.124Z,6.03
2023-01-18T16:32:16.607Z,5.60
2023-01-18T16:36:19.266Z,5.77
2023-01-18T16:40:22.511Z,5.63
2023-01-18T16:44:26.050Z,5.35
2023-01-18T16:48:29.418Z,5.45
2023-01-18T16:52:30.928Z,5.15
2023-01-18T16:56:32.742Z,4.93
2023-01-18T17:00:46.047Z,5.25
2023-01-18T17:04:47.860Z,5.20
2023-01-18T17:08:49.603Z,5.55
2023-01-18T17:12:51.144Z,5.18
2023-01-18T17:16:52.720Z,5.40
2023-01-18T17:20:55.348Z,5.53
2023-01-18T17:24:56.836Z,6.35
2023-01-18T17:28:58.510Z,5.57
2023-01-18T17:33:01.020Z,5.97
2023-01-18T17:37:03.558Z,6.57
2023-01-18T17:41:05.416Z,5.03
2023-01-18T17:45:09.951Z,5.47
2023-01-18T17:49:11.486Z,6.28
2023-01-18T17:53:12.986Z,6.28
2023-01-18T17:57:14.635Z,5.80
2023-01-18T18:01:17.209Z,6.25
2023-01-18T18:05:19.351Z,6.18
2023-01-18T18:09:21.127Z,5.53
2023-01-18T18:13:22.989Z,6.70
2023-01-18T18:17:26.167Z,7.15
2023-01-18T18:21:27.765Z,4.45
2023-01-18T18:25:29.496Z,6.78
2023-01-18T18:29:30.987Z,6.72
2023-01-18T18:33:33.895Z,6.00
2023-01-18T18:37:36.101Z,6.07
2023-01-18T18:41:37.552Z,6.85
2023-01-18T18:45:39.323Z,7.32
2023-01-18T18:49:41.271Z,6.80
2023-01-18T18:53:43.137Z,7.00
2023-01-18T18:57:44.906Z,7.80
2023-01-18T19:01:46.581Z,7.18
2023-01-18T19:05:48.112Z,7.32
2023-01-18T19:09:49.628Z,8.35
2023-01-18T19:13:51.125Z,7.72
2023-01-18T19:17:53.427Z,8.38
2023-01-18T19:21:54.924Z,9.27
2023-01-18T19:25:59.279Z,10.57
2023-01-18T19:30:01.113Z,9.70
2023-01-18T19:34:02.698Z,9.35
2023-01-18T19:38:04.403Z,8.18
2023-01-18T19:42:06.794Z,10.30
2023-01-18T19:46:15.427Z,8.93
2023-01-18T19:50:17.741Z,9.35
2023-01-18T19:54:19.271Z,10.20
2023-01-18T19:58:20.725Z,9.48
2023-01-18T20:02:22.479Z,9.55
2023-01-18T20:06:24.160Z,14.40
2023-01-18T20:10:26.095Z,11.60
2023-01-18T20:14:40.301Z,12.20
2023-01-18T20:18:42.567Z,12.60
2023-01-18T20:22:45.529Z,12.43
2023-01-18T20:26:47.004Z,10.63
2023-01-18T20:30:49.894Z,10.65
2023-01-18T20:34:51.400Z,11.18
2023-01-18T20:38:52.812Z,11.93
2023-01-18T20:42:54.271Z,10.38
2023-01-18T20:46:57.305Z,10.30
2023-01-18T20:51:00.013Z,10.35
2023-01-18T20:55:01.622Z,10.68
2023-01-18T20:59:03.134Z,10.13
2023-01-18T21:03:05.162Z,9.80
2023-01-18T21:07:06.825Z,10.07
2023-01-18T21:11:12.897Z,11.50
2023-01-18T21:15:14.494Z,12.32
2023-01-18T21:19:15.996Z,10.80
2023-01-18T21:23:17.701Z,10.77
2023-01-18T21:27:19.258Z,11.68
2023-01-18T21:31:21.452Z,11.68
2023-01-18T21:35:22.927Z,12.45
2023-01-18T21:39:28.400Z,13.63
2023-01-18T21:43:48.656Z,12.20
2023-01-18T21:47:50.127Z,12.68
2023-01-18T21:52:10.166Z,13.90
2023-01-18T21:56:11.685Z,14.40
2023-01-18T22:00:13.576Z,15.48
2023-01-18T22:04:34.319Z,12.15
2023-01-18T22:08:36.063Z,17.17
2023-01-18T22:12:39.014Z,13.63
2023-01-18T22:16:41.260Z,12.27
2023-01-18T22:20:42.685Z,9.70
2023-01-18T22:24:44.089Z,10.43
2023-01-18T22:28:45.757Z,9.57
2023-01-18T22:32:47.261Z,10.25
2023-01-18T22:36:49.786Z,9.50
2023-01-18T22:41:01.170Z,10.18
2023-01-18T22:45:02.649Z,9.60
2023-01-18T22:49:04.094Z,9.95
2023-01-18T22:53:05.744Z,11.43
2023-01-18T22:57:07.202Z,10.52
2023-01-18T23:01:26.532Z,9.85
2023-01-18T23:05:28.079Z,9.93
2023-01-18T23:09:29.604Z,9.05
2023-01-18T23:13:31.627Z,10.48
2023-01-18T23:17:38.812Z,9.45
2023-01-18T23:21:40.296Z,10.90
2023-01-18T23:25:41.788Z,10.23
2023-01-18T23:29:43.342Z,9.35
2023-01-18T23:33:44.875Z,9.30
2023-01-18T23:37:46.309Z,9.18
2023-01-18T23:42:06.460Z,10.30
2023-01-18T23:46:26.296Z,9.18
2023-01-18T23:50:45.956Z,10.45
2023-01-18T23:54:47.443Z,8.02
2023-01-18T23:58:48.961Z,9.63
